Time;durP1;ratioP1;P1;durP2;ratioP2;P2;SDS_P1;SDS_P2;PMS_P1;PMS_P2;Temp;Humidity;BMP_temperature;BMP_pressure;BME280_temperature;BME280_humidity;BME280_pressure;Samples;Min_cycle;Max_cycle;Signal;HPM_P1;HPM_P2
2021/12/04 00:00:22;;;;;;;6.10;5.45;;;;;;;8.88;56.52;101436.95;1756235;80;21057;-66
2021/12/04 00:02:50;;;;;;;6.67;6.08;;;;;;;8.86;56.66;101437.39;1748575;81;21510;-65
2021/12/04 00:05:18;;;;;;;6.60;6.00;;;;;;;8.83;56.53;101436.95;1742203;80;21570;-66
2021/12/04 00:07:44;;;;;;;9.03;7.10;;;;;;;8.81;56.51;101436.53;1752449;80;21074;-66
2021/12/04 00:10:16;;;;;;;6.75;6.12;;;;;;;8.78;56.82;101435.23;1748131;80;21000;-64
2021/12/04 00:12:39;;;;;;;6.97;6.28;;;;;;;8.76;57.11;101429.18;1755436;80;21100;-66
2021/12/04 00:15:07;;;;;;;7.58;5.90;;;;;;;8.76;57.05;101433.95;1766926;80;21025;-68
2021/12/04 00:17:34;;;;;;;7.22;6.62;;;;;;;8.75;56.99;101439.15;1763858;80;21025;-65
2021/12/04 00:20:00;;;;;;;7.50;6.72;;;;;;;8.74;56.89;101446.48;1750077;80;21033;-65
2021/12/04 00:22:27;;;;;;;8.20;7.33;;;;;;;8.71;57.03;101442.20;1776790;80;21490;-65
2021/12/04 00:24:53;;;;;;;8.43;7.10;;;;;;;8.72;57.24;101450.81;1743341;80;21007;-66
2021/12/04 00:27:19;;;;;;;7.58;6.70;;;;;;;8.72;57.27;101454.71;1755499;80;20987;-66
2021/12/04 00:29:46;;;;;;;8.83;6.72;;;;;;;8.73;57.28;101456.45;1757707;81;21038;-65
2021/12/04 00:32:26;;;;;;;7.30;6.60;;;;;;;8.76;57.51;101455.13;1761496;80;21537;-65
2021/12/04 00:34:47;;;;;;;7.28;6.53;;;;;;;8.79;56.97;101459.03;1747930;80;21025;-63
2021/12/04 00:50:41;;;;;;;7.28;6.58;;;;;;;8.75;56.82;101428.34;1764857;80;21061;-65
2021/12/04 00:53:07;;;;;;;8.23;6.37;;;;;;;8.73;56.77;101425.32;1758972;80;21035;-65
2021/12/04 00:55:34;;;;;;;6.58;5.75;;;;;;;8.70;56.81;101422.29;1777669;80;21064;-65
2021/12/04 00:58:00;;;;;;;6.58;5.92;;;;;;;8.69;56.85;101426.20;1762671;80;20998;-64
2021/12/04 01:00:27;;;;;;;6.97;6.28;;;;;;;8.68;57.13;101419.27;1759331;80;21487;-67
2021/12/04 01:02:53;;;;;;;7.08;6.37;;;;;;;8.68;57.19;101410.19;1754922;80;21541;-65
2021/12/04 01:05:20;;;;;;;7.28;6.55;;;;;;;8.64;57.16;101398.97;1753638;80;21035;-64
2021/12/04 01:07:47;;;;;;;7.37;6.67;;;;;;;8.62;57.43;101394.22;1746426;80;21092;-66
2021/12/04 01:10:14;;;;;;;7.62;6.92;;;;;;;8.60;57.55;101396.38;1747867;81;21061;-67
2021/12/04 01:12:41;;;;;;;7.70;6.60;;;;;;;8.59;57.41;101402.45;1744569;81;21061;-66
2021/12/04 01:15:08;;;;;;;8.60;6.22;;;;;;;8.57;57.68;101396.41;1750465;80;20994;-66
2021/12/04 01:17:36;;;;;;;6.78;6.08;;;;;;;8.56;58.06;101403.75;1750139;80;21022;-64
2021/12/04 01:20:04;;;;;;;6.90;6.20;;;;;;;8.59;58.04;101405.05;1758642;80;21585;-65
2021/12/04 01:22:33;;;;;;;7.47;6.12;;;;;;;8.60;58.21;101401.57;1766938;80;21053;-65
2021/12/04 01:24:58;;;;;;;6.75;6.15;;;;;;;8.64;57.89;101409.77;1752655;80;21061;-65
2021/12/04 01:27:24;;;;;;;7.17;6.33;;;;;;;8.63;57.86;101413.25;1757482;80;20998;-67
2021/12/04 01:29:51;;;;;;;7.37;6.67;;;;;;;8.62;57.70;101412.80;1744465;81;21014;-65
2021/12/04 01:32:18;;;;;;;8.40;6.15;;;;;;;8.61;57.75;101409.80;1760778;80;21038;-65
2021/12/04 01:34:44;;;;;;;6.83;6.22;;;;;;;8.63;57.73;101410.66;1755990;80;20982;-65
2021/12/04 01:37:11;;;;;;;7.10;6.40;;;;;;;8.63;57.49;101415.42;1754595;80;21003;-64
2021/12/04 01:39:38;;;;;;;7.15;6.45;;;;;;;8.63;57.58;101415.84;1752686;80;21058;-65
2021/12/04 01:42:05;;;;;;;7.33;6.62;;;;;;;8.64;57.67;101417.55;1756725;80;21022;-65
2021/12/04 01:44:33;;;;;;;8.28;7.12;;;;;;;8.65;57.59;101418.87;1756218;80;21035;-66
2021/12/04 01:47:00;;;;;;;7.33;6.58;;;;;;;8.66;57.33;101422.30;1738154;80;21084;-64
2021/12/04 01:49:27;;;;;;;7.10;6.40;;;;;;;8.66;57.41;101432.68;1758765;81;21035;-65
2021/12/04 01:51:54;;;;;;;7.20;6.60;;;;;;;8.69;57.42;101432.69;1758389;80;21003;-65
2021/12/04 01:54:21;;;;;;;6.62;6.03;;;;;;;8.67;57.43;101418.43;1751535;80;20991;-64
2021/12/04 01:56:48;;;;;;;6.75;6.05;;;;;;;8.69;57.13;101411.93;1752101;80;21011;-65
2021/12/04 01:59:14;;;;;;;7.97;7.15;;;;;;;8.69;57.13;101409.33;1744542;81;21006;-63
2021/12/04 02:01:41;;;;;;;8.23;7.42;;;;;;;8.70;56.77;101408.45;1739012;80;21109;-64
2021/12/04 02:04:07;;;;;;;8.53;6.92;;;;;;;8.66;56.71;101417.11;1749633;80;21038;-65
2021/12/04 02:06:34;;;;;;;7.00;6.40;;;;;;;8.65;56.53;101425.78;1754187;80;21029;-64
2021/12/04 02:09:00;;;;;;;7.20;6.12;;;;;;;8.62;56.47;101429.66;1757489;80;21014;-63
2021/12/04 02:11:27;;;;;;;7.80;6.97;;;;;;;8.63;56.77;101417.14;1754471;80;21096;-64
2021/12/04 02:13:54;;;;;;;7.70;6.90;;;;;;;8.66;56.82;101409.33;1750479;80;21128;-63
2021/12/04 02:16:23;;;;;;;7.97;7.17;;;;;;;8.66;56.71;101413.22;1753071;80;21018;-64
2021/12/04 02:18:49;;;;;;;8.25;6.85;;;;;;;8.67;56.48;101414.97;1762693;80;21077;-63
2021/12/04 02:21:16;;;;;;;7.28;6.47;;;;;;;8.66;56.26;101424.89;1769693;80;20974;-63
2021/12/04 02:23:43;;;;;;;6.90;6.20;;;;;;;8.66;56.48;101433.55;1772440;80;21056;-63
2021/12/04 02:26:12;;;;;;;7.62;6.62;;;;;;;8.68;56.38;101429.64;1754727;80;21584;-63
2021/12/04 02:28:38;;;;;;;7.25;6.62;;;;;;;8.70;56.31;101435.27;1757888;80;21060;-64
2021/12/04 02:31:05;;;;;;;9.20;7.78;;;;;;;8.70;56.06;101429.20;1761265;80;20994;-63
2021/12/04 02:33:32;;;;;;;8.88;7.97;;;;;;;8.70;56.29;101424.02;1764892;80;21030;-64
2021/12/04 02:36:02;;;;;;;7.40;6.60;;;;;;;8.70;56.30;101429.20;1764484;80;21490;-63
2021/12/04 02:38:28;;;;;;;8.13;7.25;;;;;;;8.72;56.35;101437.84;1758942;80;21015;-65
2021/12/04 02:40:55;;;;;;;7.33;6.60;;;;;;;8.73;56.37;101440.88;1757883;80;21002;-63
2021/12/04 02:43:22;;;;;;;7.55;6.65;;;;;;;8.72;56.34;101433.95;1757988;80;21043;-65
2021/12/04 02:45:48;;;;;;;8.00;7.20;;;;;;;8.74;56.31;101428.33;1771166;80;20995;-64
2021/12/04 02:48:16;;;;;;;8.68;6.70;;;;;;;8.74;56.18;101427.03;1758789;80;21049;-65
2021/12/04 02:50:43;;;;;;;9.05;8.15;;;;;;;8.76;56.24;101432.65;1752712;80;21070;-65
2021/12/04 02:53:09;;;;;;;9.23;7.72;;;;;;;8.76;56.01;101434.38;1757059;80;21030;-63
2021/12/04 02:55:36;;;;;;;7.60;6.80;;;;;;;8.76;56.01;101430.48;1751980;80;21041;-64
2021/12/04 02:58:03;;;;;;;8.70;7.80;;;;;;;8.79;56.17;101429.19;1755812;80;21533;-65
2021/12/04 03:00:30;;;;;;;7.97;7.17;;;;;;;8.79;55.94;101429.19;1753254;80;21045;-64
2021/12/04 03:02:57;;;;;;;10.35;7.58;;;;;;;8.78;55.95;101443.02;1751267;81;21010;-63
2021/12/04 03:05:27;;;;;;;9.05;7.45;;;;;;;8.77;55.79;101447.79;1763960;80;20994;-64
2021/12/04 03:07:56;;;;;;;10.13;7.43;;;;;;;8.75;55.42;101453.42;1762468;80;21042;-64
2021/12/04 03:10:23;;;;;;;8.20;7.40;;;;;;;8.71;55.55;101446.52;1757147;80;20982;-64
2021/12/04 03:12:51;;;;;;;8.80;7.62;;;;;;;8.73;55.75;101447.37;1765627;80;21051;-64
2021/12/04 03:15:20;;;;;;;9.05;8.20;;;;;;;8.74;55.46;101439.58;1752414;80;21055;-64
2021/12/04 03:17:47;;;;;;;10.35;7.60;;;;;;;8.73;55.14;101430.51;1762714;80;21554;-64
2021/12/04 03:20:13;;;;;;;8.45;7.55;;;;;;;8.67;54.96;101421.45;1760248;80;21480;-64
2021/12/04 03:22:41;;;;;;;8.95;8.03;;;;;;;8.62;55.34;101444.81;1747593;80;21498;-63
2021/12/04 03:25:08;;;;;;;7.67;6.87;;;;;;;8.60;55.38;101467.72;1748490;80;21482;-64
2021/12/04 03:27:35;;;;;;;8.13;7.30;;;;;;;8.60;55.55;101479.39;1749408;81;21046;-62
2021/12/04 03:40:36;;;;;;;10.45;8.70;;;;;;;8.61;55.74;101455.20;1696623;83;21102;-64
2021/12/04 03:42:53;;;;;;;9.33;8.40;;;;;;;8.62;55.82;101468.58;1684683;83;21093;-64
2021/12/04 03:45:20;;;;;;;10.53;8.98;;;;;;;8.64;55.84;101482.41;1699865;83;21014;-63
2021/12/04 03:47:50;;;;;;;10.03;8.73;;;;;;;8.62;55.58;101486.73;1702223;83;21043;-64
2021/12/04 03:50:16;;;;;;;10.10;8.58;;;;;;;8.59;55.66;101486.34;1686607;83;21027;-63
2021/12/04 03:52:42;;;;;;;9.08;8.13;;;;;;;8.58;55.85;101478.11;1705455;83;21078;-64
2021/12/04 03:55:10;;;;;;;9.38;8.08;;;;;;;8.60;55.76;101480.69;1697623;83;21078;-63
2021/12/04 03:57:43;;;;;;;9.15;8.23;;;;;;;8.60;55.77;101478.09;1679337;83;21142;-62
2021/12/04 04:00:07;;;;;;;9.10;8.15;;;;;;;8.57;55.75;101472.48;1684474;85;21069;-63
2021/12/04 04:02:35;;;;;;;9.40;8.40;;;;;;;8.54;55.79;101473.80;1687127;83;21051;-62
2021/12/04 04:05:01;;;;;;;9.28;8.38;;;;;;;8.50;55.84;101472.50;1671949;83;21097;-65
2021/12/04 04:07:30;;;;;;;8.90;8.00;;;;;;;8.46;56.07;101476.84;1687495;83;21048;-64
2021/12/04 04:09:56;;;;;;;8.30;7.10;;;;;;;8.47;56.09;101487.63;1674489;83;21125;-63
2021/12/04 04:12:22;;;;;;;12.53;10.32;;;;;;;8.47;56.02;101497.16;1696273;83;21041;-63
2021/12/04 04:14:49;;;;;;;9.88;8.50;;;;;;;8.45;56.08;101504.92;1690080;83;21074;-63
2021/12/04 04:17:17;;;;;;;11.12;8.70;;;;;;;8.39;56.45;101495.02;1693449;83;21046;-64
2021/12/04 04:19:43;;;;;;;9.60;8.60;;;;;;;8.36;56.45;101492.41;1690460;83;21035;-64
2021/12/04 04:22:10;;;;;;;9.45;8.48;;;;;;;8.36;56.44;101495.88;1704997;83;21058;-63
2021/12/04 04:24:36;;;;;;;9.98;8.43;;;;;;;8.36;56.20;101487.22;1674733;83;21017;-63
2021/12/04 04:27:03;;;;;;;11.50;8.38;;;;;;;8.34;56.21;101486.36;1672185;83;21054;-64
2021/12/04 04:29:30;;;;;;;10.48;9.35;;;;;;;8.32;56.25;101477.30;1734324;80;21525;-63
2021/12/04 04:31:56;;;;;;;10.50;8.40;;;;;;;8.32;56.15;101477.72;1743801;80;21474;-64
2021/12/04 04:34:32;;;;;;;9.88;8.60;;;;;;;8.32;56.24;101475.13;1753637;80;21530;-64
2021/12/04 04:37:22;;;;;;;11.97;8.65;;;;;;;8.32;56.25;101480.31;1759532;80;21494;-65
2021/12/04 05:14:35;;;;;;;11.50;10.05;;;;;;;8.04;56.78;101451.78;1690256;84;21101;-65
2021/12/04 05:17:15;;;;;;;29.07;18.07;;;;;;;8.02;57.00;101448.75;1654918;85;21114;-65
2021/12/04 05:22:08;;;;;;;14.18;11.45;;;;;;;8.00;57.00;101447.89;1696394;84;21579;-65
2021/12/04 05:24:34;;;;;;;12.63;10.08;;;;;;;7.95;57.02;101447.91;1697925;84;21583;-63
2021/12/04 05:27:01;;;;;;;13.38;10.85;;;;;;;7.91;57.42;101443.56;1692772;84;21463;-63
2021/12/04 05:29:27;;;;;;;16.57;10.80;;;;;;;7.92;57.44;101441.42;1692875;83;21089;-64
2021/12/04 05:31:54;;;;;;;35.95;20.68;;;;;;;7.91;57.26;101438.84;1689412;83;21061;-64
2021/12/04 05:34:21;;;;;;;16.25;13.03;;;;;;;7.91;57.62;101443.56;1651495;85;21100;-64
2021/12/04 05:36:47;;;;;;;12.33;10.45;;;;;;;7.92;57.45;101441.42;1640310;86;21045;-64
2021/12/04 05:39:14;;;;;;;10.80;9.25;;;;;;;7.92;57.61;101444.02;1632975;87;21008;-63
2021/12/04 05:41:40;;;;;;;11.18;9.98;;;;;;;7.92;57.66;101449.19;1628978;87;21101;-64
2021/12/04 05:44:09;;;;;;;12.75;10.13;;;;;;;7.92;57.61;101440.13;1631366;86;21086;-64
2021/12/04 05:46:40;;;;;;;11.50;10.30;;;;;;;7.93;57.69;101443.59;1652122;86;21533;-64
2021/12/04 05:49:15;;;;;;;12.55;11.25;;;;;;;7.89;57.62;101449.17;1633430;87;20991;-64
2021/12/04 05:51:49;;;;;;;11.48;10.15;;;;;;;7.87;57.68;101450.06;1630241;87;21469;-63
2021/12/04 05:56:31;;;;;;;10.82;9.70;;;;;;;7.83;57.86;101459.55;1686275;84;20995;-63
2021/12/04 05:58:59;;;;;;;10.65;9.30;;;;;;;7.83;58.05;101456.95;1754205;80;21081;-64
2021/12/04 06:01:25;;;;;;;12.07;10.05;;;;;;;7.83;58.05;101453.06;1752335;80;21041;-64
2021/12/04 06:03:52;;;;;;;10.48;9.00;;;;;;;7.82;57.97;101460.42;1756794;80;21027;-65
2021/12/04 06:06:19;;;;;;;11.28;10.08;;;;;;;7.83;58.05;101449.17;1754812;80;21075;-64
2021/12/04 06:08:46;;;;;;;11.00;9.53;;;;;;;7.82;57.99;101456.53;1759288;80;21049;-64
2021/12/04 06:11:13;;;;;;;10.80;9.60;;;;;;;7.82;58.19;101455.24;1759044;80;20998;-65
2021/12/04 06:13:39;;;;;;;11.33;9.58;;;;;;;7.83;58.17;101461.30;1757128;80;21007;-63
2021/12/04 06:16:05;;;;;;;10.23;9.18;;;;;;;7.83;58.34;101463.88;1759404;80;21026;-64
2021/12/04 06:18:32;;;;;;;11.33;9.48;;;;;;;7.83;58.39;101456.95;1763786;80;21034;-64
2021/12/04 06:23:43;;;;;;;11.73;9.25;;;;;;;7.85;58.54;101466.88;1744682;81;21544;-64
2021/12/04 06:26:10;;;;;;;10.80;9.63;;;;;;;7.87;58.63;101471.63;1742666;80;21017;-64
2021/12/04 06:28:37;;;;;;;10.68;9.60;;;;;;;7.88;58.80;101463.02;1748322;80;21050;-62
2021/12/04 06:31:04;;;;;;;12.15;10.85;;;;;;;7.92;58.84;101467.33;1735417;80;21539;-61
2021/12/04 06:33:32;;;;;;;12.70;10.72;;;;;;;7.91;58.73;101467.34;1746921;80;21509;-62
2021/12/04 06:35:59;;;;;;;13.22;11.03;;;;;;;7.85;59.03;101473.36;1743968;80;21058;-61
2021/12/04 06:38:26;;;;;;;12.95;10.95;;;;;;;7.80;59.36;101472.52;1747796;80;21053;-60
2021/12/04 06:40:52;;;;;;;11.53;10.43;;;;;;;7.75;59.51;101471.63;1760846;80;21078;-61
2021/12/04 06:43:19;;;;;;;11.97;9.58;;;;;;;7.71;59.58;101472.48;1760943;80;21073;-61
2021/12/04 06:45:51;;;;;;;17.70;10.70;;;;;;;7.67;59.83;101471.18;1750851;80;21042;-59
2021/12/04 06:48:20;;;;;;;11.30;10.08;;;;;;;7.64;60.07;101472.06;1742542;80;21066;-61
2021/12/04 06:56:05;;;;;;;11.83;10.60;;;;;;;7.57;60.51;101471.61;1758057;80;21105;-60
2021/12/04 06:58:31;;;;;;;12.10;10.63;;;;;;;7.56;60.63;101469.02;1756498;80;21064;-61
2021/12/04 07:01:00;;;;;;;11.65;9.90;;;;;;;7.54;60.58;101471.63;1751097;80;20995;-61
2021/12/04 07:03:26;;;;;;;11.48;10.20;;;;;;;7.49;60.64;101470.73;1758309;80;21608;-61
2021/12/04 07:05:53;;;;;;;11.00;9.45;;;;;;;7.48;60.70;101463.81;1764028;80;21545;-61
2021/12/04 07:08:20;;;;;;;11.75;10.08;;;;;;;7.45;60.91;101475.89;1768368;80;21454;-61
2021/12/04 07:10:48;;;;;;;10.90;9.70;;;;;;;7.42;61.01;101468.98;1751270;80;22403;-62
2021/12/04 07:13:14;;;;;;;10.43;9.33;;;;;;;7.43;61.12;101470.72;1746126;80;21561;-62
2021/12/04 07:15:45;;;;;;;11.25;10.10;;;;;;;7.44;61.23;101474.18;1741290;81;21041;-62
2021/12/04 07:18:11;;;;;;;10.60;9.35;;;;;;;7.43;61.27;101470.72;1764500;80;21478;-61
2021/12/04 07:20:38;;;;;;;10.43;9.00;;;;;;;7.44;61.27;101472.89;1753062;80;21518;-62
2021/12/04 07:23:06;;;;;;;11.03;9.18;;;;;;;7.44;61.34;101477.61;1740648;80;21565;-62
2021/12/04 07:25:33;;;;;;;10.95;9.88;;;;;;;7.44;61.27;101478.91;1747593;80;20991;-62
2021/12/04 07:27:59;;;;;;;11.10;9.08;;;;;;;7.44;61.17;101484.08;1756322;80;20999;-62
2021/12/04 07:30:26;;;;;;;17.60;13.75;;;;;;;7.39;61.22;101489.27;1733865;81;21007;-61
2021/12/04 07:32:54;;;;;;;12.33;11.03;;;;;;;7.38;61.38;101480.19;1737464;80;21338;-62
2021/12/04 07:35:21;;;;;;;21.55;16.20;;;;;;;7.39;61.30;101484.52;1770917;80;21003;-62
2021/12/04 07:37:47;;;;;;;14.00;11.57;;;;;;;7.39;61.35;101487.98;1752767;80;21521;-63
2021/12/04 07:40:14;;;;;;;14.05;12.28;;;;;;;7.38;61.25;101484.07;1763703;80;21054;-60
2021/12/04 07:42:40;;;;;;;13.60;11.63;;;;;;;7.36;61.25;101481.91;1758354;80;21073;-61
2021/12/04 07:45:07;;;;;;;11.30;10.18;;;;;;;7.34;61.37;101481.91;1755784;80;21026;-62
2021/12/04 07:47:34;;;;;;;11.22;10.00;;;;;;;7.33;61.46;101479.33;1754610;80;21014;-62
2021/12/04 07:50:02;;;;;;;11.18;9.48;;;;;;;7.28;61.55;101475.42;1773417;80;21089;-62
2021/12/04 07:52:28;;;;;;;10.78;9.68;;;;;;;7.26;61.46;101476.27;1751034;80;20960;-62
2021/12/04 07:54:55;;;;;;;10.95;9.28;;;;;;;7.23;61.52;101478.41;1759649;81;21031;-61
2021/12/04 07:57:23;;;;;;;11.25;8.93;;;;;;;7.21;61.60;101474.12;1751051;81;21030;-61
2021/12/04 07:59:50;;;;;;;13.58;10.25;;;;;;;7.23;61.65;101473.69;1745733;80;21509;-61
2021/12/04 08:02:16;;;;;;;10.03;9.05;;;;;;;7.20;61.67;101465.90;1740098;80;20959;-60
2021/12/04 08:04:43;;;;;;;10.95;9.70;;;;;;;7.16;61.60;101478.40;1745836;80;21060;-61
2021/12/04 08:07:09;;;;;;;10.30;8.80;;;;;;;7.12;61.73;101479.24;1749546;80;21054;-60
2021/12/04 08:09:35;;;;;;;9.80;8.80;;;;;;;7.11;61.91;101487.88;1739101;80;20995;-60
2021/12/04 08:12:02;;;;;;;10.15;8.68;;;;;;;7.14;61.98;101484.87;1751635;80;21057;-62
2021/12/04 08:14:30;;;;;;;10.45;9.45;;;;;;;7.15;61.95;101477.98;1712813;82;20998;-60
2021/12/04 08:16:57;;;;;;;10.10;9.10;;;;;;;7.15;61.96;101475.39;1747651;81;21059;-61
2021/12/04 08:19:23;;;;;;;10.45;9.35;;;;;;;7.14;61.98;101463.30;1747682;80;21022;-61
2021/12/04 08:21:50;;;;;;;11.40;10.28;;;;;;;7.13;61.92;101465.47;1746748;80;21021;-61
2021/12/04 08:24:16;;;;;;;10.68;9.58;;;;;;;7.11;61.99;101464.59;1746377;80;20959;-60
2021/12/04 08:26:44;;;;;;;12.70;9.38;;;;;;;7.09;62.06;101468.90;1737573;81;21065;-61
2021/12/04 08:29:10;;;;;;;10.65;9.03;;;;;;;7.09;62.13;101463.72;1747207;80;20980;-61
2021/12/04 08:31:37;;;;;;;10.05;8.98;;;;;;;7.09;62.16;101463.72;1742932;80;21564;-61
2021/12/04 08:34:04;;;;;;;10.53;9.28;;;;;;;7.09;62.14;101456.80;1745212;81;21061;-61
2021/12/04 08:36:32;;;;;;;11.25;9.85;;;;;;;7.08;62.14;101447.33;1741165;81;21026;-60
2021/12/04 08:39:02;;;;;;;11.95;9.75;;;;;;;7.07;62.25;101436.95;1775747;80;21054;-61
2021/12/04 08:41:28;;;;;;;10.88;9.78;;;;;;;7.09;62.33;101432.67;1768510;80;21011;-61
2021/12/04 08:43:56;;;;;;;10.88;9.78;;;;;;;7.08;62.32;101429.63;1738568;80;21082;-61
2021/12/04 08:46:23;;;;;;;11.08;9.38;;;;;;;7.08;62.28;101421.87;1746028;80;21022;-61
2021/12/04 08:48:52;;;;;;;9.65;8.63;;;;;;;7.06;62.40;101414.53;1772909;80;21408;-61
2021/12/04 08:51:21;;;;;;;10.48;9.38;;;;;;;7.05;62.55;101412.36;1754290;80;21478;-62
2021/12/04 08:53:49;;;;;;;10.80;9.55;;;;;;;7.07;62.58;101412.36;1756371;80;21058;-62
2021/12/04 08:56:16;;;;;;;10.25;9.18;;;;;;;7.05;62.60;101405.02;1766457;80;21017;-60
2021/12/04 08:58:42;;;;;;;11.12;9.95;;;;;;;7.04;62.72;101400.30;1746455;80;21494;-60
2021/12/04 09:01:17;;;;;;;12.55;11.00;;;;;;;7.05;62.74;101394.67;1745971;80;21802;-61
2021/12/04 09:03:46;;;;;;;14.93;12.82;;;;;;;7.09;62.77;101396.44;1747950;80;21530;-61
2021/12/04 09:06:14;;;;;;;13.62;11.97;;;;;;;7.11;62.66;101389.09;1761740;80;21018;-62
2021/12/04 09:08:41;;;;;;;15.80;11.97;;;;;;;7.10;62.67;101377.03;1761830;80;21401;-60
2021/12/04 09:11:15;;;;;;;14.45;12.15;;;;;;;7.10;62.75;101378.74;1750401;80;21482;-62
2021/12/04 09:13:42;;;;;;;11.33;10.23;;;;;;;7.11;62.84;101377.90;1697168;82;21049;-62
2021/12/04 09:16:09;;;;;;;12.68;11.38;;;;;;;7.11;62.91;101381.78;1689062;83;21036;-60
2021/12/04 09:18:36;;;;;;;13.53;11.40;;;;;;;7.11;62.94;101374.02;1709176;82;21060;-61
2021/12/04 09:21:05;;;;;;;12.33;11.12;;;;;;;7.13;63.03;101372.30;1686470;84;21089;-61
2021/12/04 09:23:38;;;;;;;12.20;10.95;;;;;;;7.15;63.01;101369.28;1712560;82;21109;-60
2021/12/04 09:26:04;;;;;;;;;;;;;;;7.19;63.04;101365.84;1704323;82;21061;-60
2021/12/04 09:31:22;;;;;;;16.37;14.63;;;;;;;7.24;63.05;101369.28;1636625;86;21117;-60
2021/12/04 10:11:58;;;;;;;11.22;10.15;;;;;;;7.70;62.64;101346.44;1589149;88;21152;-60
2021/12/04 10:33:39;;;;;;;17.55;13.25;;;;;;;7.97;62.25;101331.29;1491729;94;21101;-61
2021/12/04 10:36:05;;;;;;;13.90;12.07;;;;;;;7.98;62.11;101329.98;1487883;93;21073;-60
2021/12/04 10:38:39;;;;;;;15.40;13.53;;;;;;;7.98;61.99;101327.81;1520137;93;21112;-61
2021/12/04 10:41:00;;;;;;;14.43;12.75;;;;;;;7.97;61.82;101324.39;1524078;93;21124;-61
2021/12/04 10:43:30;;;;;;;16.45;13.60;;;;;;;8.00;61.87;101320.48;1536956;92;21508;-61
2021/12/04 10:46:11;;;;;;;17.15;13.62;;;;;;;8.01;61.81;101318.33;1533080;92;21149;-60
2021/12/04 10:48:35;;;;;;;17.27;13.95;;;;;;;8.04;61.83;101310.95;1585357;88;21590;-61
2021/12/04 10:51:19;;;;;;;14.65;12.82;;;;;;;8.05;61.79;101300.61;1625349;87;21577;-61
2021/12/04 10:53:38;;;;;;;17.23;14.23;;;;;;;8.08;61.62;101294.10;1614612;88;21022;-62
2021/12/04 10:56:22;;;;;;;15.40;13.80;;;;;;;8.08;61.52;101300.58;1588908;89;21084;-60
2021/12/04 11:36:46;;;;;;;17.73;15.40;;;;;;;8.05;62.51;101244.88;1559590;89;21570;-60
2021/12/04 11:41:35;;;;;;;19.87;16.82;;;;;;;8.03;62.66;101242.73;1607121;87;21105;-60
2021/12/04 11:46:44;;;;;;;19.63;15.40;;;;;;;8.07;62.77;101240.98;1518684;93;21107;-60
2021/12/04 11:49:24;;;;;;;17.40;15.50;;;;;;;8.07;62.96;101233.20;1530925;92;21370;-60
2021/12/04 11:51:57;;;;;;;14.93;13.18;;;;;;;8.07;62.98;101235.38;1533319;92;21045;-60
2021/12/04 11:54:32;;;;;;;14.65;13.10;;;;;;;8.09;63.23;101234.94;1516064;94;21085;-60
2021/12/04 11:57:08;;;;;;;14.73;10.60;;;;;;;8.11;63.36;101237.08;1499603;95;21153;-63
2021/12/04 11:59:39;;;;;;;11.95;10.55;;;;;;;8.14;63.48;101232.30;1520106;93;21098;-62
2021/12/04 12:02:10;;;;;;;10.43;9.35;;;;;;;8.19;63.79;101234.02;1530695;92;21140;-61
2021/12/04 12:04:43;;;;;;;10.93;9.90;;;;;;;8.24;63.93;101234.84;1471746;92;21153;-61
2021/12/04 12:07:17;;;;;;;13.75;9.43;;;;;;;8.31;63.73;101232.25;1483855;95;21066;-61
2021/12/04 12:09:44;;;;;;;11.05;9.33;;;;;;;8.35;63.52;101227.48;1467738;96;21101;-63
2021/12/04 12:12:14;;;;;;;10.63;9.53;;;;;;;8.36;63.39;101227.50;1455936;96;21699;-61
2021/12/04 12:14:53;;;;;;;15.05;11.38;;;;;;;8.38;63.34;101226.19;1451228;97;21190;-61
2021/12/04 12:17:37;;;;;;;16.80;14.95;;;;;;;8.41;63.22;101223.59;1448674;96;21133;-61
2021/12/04 12:20:10;;;;;;;18.27;15.43;;;;;;;8.43;62.59;101224.44;1443114;96;21097;-61
2021/12/04 12:22:45;;;;;;;18.37;14.85;;;;;;;8.39;62.44;101223.57;1406788;99;21673;-61
2021/12/04 12:34:02;;;;;;;17.80;15.18;;;;;;;8.29;62.46;101224.49;1424596;99;21141;-62
2021/12/04 12:36:28;;;;;;;17.55;15.68;;;;;;;8.26;62.54;101218.47;1402342;101;21115;-62
2021/12/04 12:39:02;;;;;;;16.62;14.83;;;;;;;8.24;62.46;101219.29;1395479;102;21194;-62
2021/12/04 12:41:44;;;;;;;15.55;13.95;;;;;;;8.22;62.52;101218.44;1403561;99;21156;-62
2021/12/04 12:44:24;;;;;;;17.82;14.98;;;;;;;8.22;62.39;101218.44;1402964;100;21150;-62
2021/12/04 12:47:02;;;;;;;17.20;15.18;;;;;;;8.19;62.45;101209.39;1374523;103;21182;-61
2021/12/04 12:49:37;;;;;;;16.23;14.40;;;;;;;8.18;62.48;101212.84;1368770;103;21176;-61
2021/12/04 12:52:15;;;;;;;16.70;13.85;;;;;;;8.16;62.53;101218.47;1405195;100;21165;-62
2021/12/04 12:54:55;;;;;;;18.05;12.93;;;;;;;8.16;62.49;101200.32;1449183;97;21813;-61
2021/12/04 12:57:31;;;;;;;15.60;12.30;;;;;;;8.16;62.51;101202.91;1449434;96;21653;-63
2021/12/04 13:11:47;;;;;;;11.03;9.90;;;;;;;8.30;62.75;101185.17;1488644;93;21131;-63
2021/12/04 13:14:17;;;;;;;10.53;9.50;;;;;;;8.35;62.81;101182.97;1489577;95;21146;-60
2021/12/04 13:16:48;;;;;;;9.63;8.68;;;;;;;8.41;62.80;101182.09;1487288;94;21134;-61
2021/12/04 13:19:16;;;;;;;11.22;10.13;;;;;;;8.46;62.64;101177.72;1489882;94;21135;-61
2021/12/04 13:21:46;;;;;;;11.35;10.23;;;;;;;8.49;62.56;101177.72;1469273;96;21200;-61
2021/12/04 13:24:12;;;;;;;11.75;10.55;;;;;;;8.52;62.47;101181.14;1497394;94;21080;-61
2021/12/04 13:26:47;;;;;;;12.37;11.08;;;;;;;8.51;62.22;101174.68;1500522;93;21186;-61
2021/12/04 13:29:17;;;;;;;13.05;11.43;;;;;;;8.50;62.24;101175.53;1482038;95;21122;-61
2021/12/04 13:31:44;;;;;;;12.98;11.28;;;;;;;8.51;62.30;101182.46;1477692;95;21158;-61
2021/12/04 13:34:13;;;;;;;13.55;11.55;;;;;;;8.53;62.29;101171.64;1481913;97;21103;-61
2021/12/04 13:36:40;;;;;;;14.20;12.43;;;;;;;8.55;62.22;101172.48;1481622;97;21127;-61
2021/12/04 13:39:13;;;;;;;13.98;12.00;;;;;;;8.54;62.16;101166.86;1483528;96;21085;-61
2021/12/04 13:41:43;;;;;;;14.03;12.60;;;;;;;8.53;62.24;101165.16;1491576;95;21116;-62
2021/12/04 13:44:11;;;;;;;14.90;13.28;;;;;;;8.54;62.28;101169.45;1480887;95;21068;-61
2021/12/04 13:46:56;;;;;;;22.10;17.17;;;;;;;8.55;62.29;101162.11;1478234;97;21093;-62
2021/12/04 13:49:32;;;;;;;21.55;16.73;;;;;;;8.56;62.32;101166.41;1457085;97;21186;-62
2021/12/04 13:52:00;;;;;;;16.52;13.55;;;;;;;8.56;62.27;101165.12;1359674;103;21142;-61
2021/12/04 13:54:28;;;;;;;21.40;15.18;;;;;;;8.57;62.26;101165.56;1358273;104;21123;-61
2021/12/04 13:56:54;;;;;;;22.82;15.15;;;;;;;8.58;62.20;101163.38;1407944;99;21128;-61
2021/12/04 13:59:23;;;;;;;22.35;15.63;;;;;;;8.57;62.22;101168.16;1442302;97;21261;-60
2021/12/04 14:01:50;;;;;;;20.62;15.45;;;;;;;8.57;62.12;101168.16;1420081;101;21122;-62
2021/12/04 14:04:17;;;;;;;24.75;17.05;;;;;;;8.58;62.09;101170.72;1397783;101;21195;-61
2021/12/04 14:06:52;;;;;;;21.80;16.50;;;;;;;8.62;61.92;101176.74;1418614;101;21207;-61
2021/12/04 14:09:20;;;;;;;27.85;18.50;;;;;;;8.62;61.64;101168.96;1421816;100;21075;-62
2021/12/04 14:11:47;;;;;;;24.52;16.67;;;;;;;8.60;61.52;101168.11;1442371;97;21119;-63
2021/12/04 14:14:18;;;;;;;21.77;15.83;;;;;;;8.60;61.56;101175.89;1442771;97;21186;-62
2021/12/04 14:16:51;;;;;;;27.07;18.95;;;;;;;8.57;61.67;101175.47;1408496;102;21074;-61
2021/12/04 14:19:21;;;;;;;21.77;15.50;;;;;;;8.54;61.68;101170.75;1432378;98;21114;-62
2021/12/04 14:22:11;;;;;;;21.20;16.35;;;;;;;8.55;61.75;101175.08;1407358;102;21131;-61
2021/12/04 14:24:47;;;;;;;20.48;15.53;;;;;;;8.54;61.75;101174.64;1367094;104;21161;-62
2021/12/04 14:27:24;;;;;;;19.92;14.70;;;;;;;8.54;61.88;101175.94;1381175;102;21702;-61
2021/12/04 14:29:55;;;;;;;16.82;14.33;;;;;;;8.55;61.91;101173.33;1360588;102;21165;-60
2021/12/04 14:32:24;;;;;;;15.83;13.13;;;;;;;8.57;61.99;101170.75;1323046;106;21157;-61
2021/12/04 14:35:10;;;;;;;18.30;14.68;;;;;;;8.59;62.11;101172.47;1323974;107;21145;-59
2021/12/04 14:37:40;;;;;;;16.50;13.93;;;;;;;8.62;62.11;101174.16;1329158;107;21180;-62
2021/12/04 14:40:11;;;;;;;16.93;13.62;;;;;;;8.65;61.92;101174.14;1322097;107;21156;-61
2021/12/04 14:42:38;;;;;;;19.80;15.03;;;;;;;8.68;62.09;101174.10;1358144;104;21272;-62
2021/12/04 14:45:11;;;;;;;18.32;15.18;;;;;;;8.73;61.98;101184.02;1360365;104;21173;-60